sensor_id;sensor_type;location;lat;lon;timestamp;temperature;humidity
8269;DHT22;4174;48.304;16.364;2023-11-21T00:05:12;9.80;99.90
8269;DHT22;4174;48.304;16.364;2023-11-21T00:11:15;9.70;99.90
8269;DHT22;4174;48.304;16.364;2023-11-21T00:17:19;9.70;99.90
8269;DHT22;4174;48.304;16.364;2023-11-21T00:23:23;9.50;99.90
8269;DHT22;4174;48.304;16.364;2023-11-21T00:29:27;9.50;99.90
8269;DHT22;4174;48.304;16.364;2023-11-21T00:35:31;9.40;99.90
8269;DHT22;4174;48.304;16.364;2023-11-21T00:41:35;9.60;99.90
8269;DHT22;4174;48.304;16.364;2023-11-21T00:47:39;9.60;99.90
8269;DHT22;4174;48.304;16.364;2023-11-21T00:53:42;9.60;99.90
8269;DHT22;4174;48.304;16.364;2023-11-21T00:59:46;9.40;99.90
8269;DHT22;4174;48.304;16.364;2023-11-21T01:05:51;9.40;99.90
8269;DHT22;4174;48.304;16.364;2023-11-21T01:11:54;9.20;99.90
8269;DHT22;4174;48.304;16.364;2023-11-21T01:17:58;8.90;99.90
8269;DHT22;4174;48.304;16.364;2023-11-21T01:24:05;8.90;99.90
8269;DHT22;4174;48.304;16.364;2023-11-21T01:30:10;9.00;99.90
8269;DHT22;4174;48.304;16.364;2023-11-21T01:36:14;9.10;99.90
8269;DHT22;4174;48.304;16.364;2023-11-21T01:42:18;9.20;99.90
8269;DHT22;4174;48.304;16.364;2023-11-21T01:48:21;9.30;99.90
8269;DHT22;4174;48.304;16.364;2023-11-21T01:54:24;9.40;99.90
8269;DHT22;4174;48.304;16.364;2023-11-21T02:00:27;9.30;99.90
8269;DHT22;4174;48.304;16.364;2023-11-21T02:06:30;9.40;99.90
8269;DHT22;4174;48.304;16.364;2023-11-21T02:12:34;9.40;99.90
8269;DHT22;4174;48.304;16.364;2023-11-21T02:18:37;9.50;99.90
8269;DHT22;4174;48.304;16.364;2023-11-21T02:24:40;9.50;99.90
8269;DHT22;4174;48.304;16.364;2023-11-21T02:30:43;9.40;99.90
8269;DHT22;4174;48.304;16.364;2023-11-21T02:36:46;9.30;99.90
8269;DHT22;4174;48.304;16.364;2023-11-21T02:42:49;9.10;99.90
8269;DHT22;4174;48.304;16.364;2023-11-21T02:48:52;8.80;99.90
8269;DHT22;4174;48.304;16.364;2023-11-21T02:54:56;8.50;99.90
8269;DHT22;4174;48.304;16.364;2023-11-21T03:00:59;8.50;99.90
8269;DHT22;4174;48.304;16.364;2023-11-21T03:07:03;8.20;99.90
8269;DHT22;4174;48.304;16.364;2023-11-21T03:13:07;8.20;99.90
8269;DHT22;4174;48.304;16.364;2023-11-21T03:19:11;8.20;99.90
8269;DHT22;4174;48.304;16.364;2023-11-21T03:25:14;8.20;99.90
8269;DHT22;4174;48.304;16.364;2023-11-21T03:31:18;8.30;99.90
8269;DHT22;4174;48.304;16.364;2023-11-21T03:37:21;8.40;99.90
8269;DHT22;4174;48.304;16.364;2023-11-21T03:43:24;8.30;99.90
8269;DHT22;4174;48.304;16.364;2023-11-21T03:49:28;8.20;99.90
8269;DHT22;4174;48.304;16.364;2023-11-21T03:55:31;8.20;99.90
8269;DHT22;4174;48.304;16.364;2023-11-21T04:01:35;8.10;99.90
8269;DHT22;4174;48.304;16.364;2023-11-21T04:07:38;8.10;99.90
8269;DHT22;4174;48.304;16.364;2023-11-21T04:13:42;8.20;99.90
8269;DHT22;4174;48.304;16.364;2023-11-21T04:19:45;8.10;99.90
8269;DHT22;4174;48.304;16.364;2023-11-21T04:25:48;8.20;99.90
8269;DHT22;4174;48.304;16.364;2023-11-21T04:31:51;8.20;99.90
8269;DHT22;4174;48.304;16.364;2023-11-21T04:37:55;8.10;99.90
8269;DHT22;4174;48.304;16.364;2023-11-21T04:43:58;8.10;99.90
8269;DHT22;4174;48.304;16.364;2023-11-21T04:50:03;8.20;99.90
8269;DHT22;4174;48.304;16.364;2023-11-21T04:56:08;8.20;99.90
8269;DHT22;4174;48.304;16.364;2023-11-21T05:02:12;8.00;99.90
8269;DHT22;4174;48.304;16.364;2023-11-21T05:08:15;7.90;99.90
8269;DHT22;4174;48.304;16.364;2023-11-21T05:14:19;7.90;99.90
8269;DHT22;4174;48.304;16.364;2023-11-21T05:20:22;8.00;99.90
8269;DHT22;4174;48.304;16.364;2023-11-21T05:26:26;8.00;99.90
8269;DHT22;4174;48.304;16.364;2023-11-21T05:32:29;8.10;99.90
8269;DHT22;4174;48.304;16.364;2023-11-21T05:38:33;8.00;99.90
8269;DHT22;4174;48.304;16.364;2023-11-21T05:44:36;8.10;99.90
8269;DHT22;4174;48.304;16.364;2023-11-21T05:50:40;7.90;99.90
8269;DHT22;4174;48.304;16.364;2023-11-21T05:56:43;8.00;99.90
8269;DHT22;4174;48.304;16.364;2023-11-21T06:02:47;8.10;99.90
8269;DHT22;4174;48.304;16.364;2023-11-21T06:08:52;8.20;99.90
8269;DHT22;4174;48.304;16.364;2023-11-21T06:14:55;8.20;99.90
8269;DHT22;4174;48.304;16.364;2023-11-21T06:20:59;8.40;99.90
8269;DHT22;4174;48.304;16.364;2023-11-21T06:27:05;8.40;99.90
8269;DHT22;4174;48.304;16.364;2023-11-21T06:33:09;8.50;99.90
8269;DHT22;4174;48.304;16.364;2023-11-21T06:39:13;8.50;99.90
8269;DHT22;4174;48.304;16.364;2023-11-21T06:45:16;8.70;99.90
8269;DHT22;4174;48.304;16.364;2023-11-21T06:51:20;9.00;99.90
8269;DHT22;4174;48.304;16.364;2023-11-21T06:57:24;9.30;99.90
8269;DHT22;4174;48.304;16.364;2023-11-21T07:03:28;9.30;99.90
8269;DHT22;4174;48.304;16.364;2023-11-21T07:09:31;9.30;99.90
8269;DHT22;4174;48.304;16.364;2023-11-21T07:15:35;9.50;99.90
8269;DHT22;4174;48.304;16.364;2023-11-21T07:21:38;9.60;99.90
8269;DHT22;4174;48.304;16.364;2023-11-21T07:27:42;9.60;99.90
8269;DHT22;4174;48.304;16.364;2023-11-21T07:33:46;9.80;99.90
8269;DHT22;4174;48.304;16.364;2023-11-21T07:39:50;9.90;99.90
8269;DHT22;4174;48.304;16.364;2023-11-21T07:45:54;9.90;99.90
8269;DHT22;4174;48.304;16.364;2023-11-21T07:51:57;10.00;99.90
8269;DHT22;4174;48.304;16.364;2023-11-21T07:58:01;10.20;99.90
8269;DHT22;4174;48.304;16.364;2023-11-21T08:04:05;10.10;99.90
8269;DHT22;4174;48.304;16.364;2023-11-21T08:10:09;9.80;99.90
8269;DHT22;4174;48.304;16.364;2023-11-21T08:16:12;9.80;99.90
8269;DHT22;4174;48.304;16.364;2023-11-21T08:22:16;9.80;99.90
8269;DHT22;4174;48.304;16.364;2023-11-21T08:28:19;9.70;99.90
8269;DHT22;4174;48.304;16.364;2023-11-21T08:34:22;9.90;99.90
8269;DHT22;4174;48.304;16.364;2023-11-21T08:40:25;10.70;99.90
8269;DHT22;4174;48.304;16.364;2023-11-21T08:46:29;11.60;99.90
8269;DHT22;4174;48.304;16.364;2023-11-21T08:52:33;12.20;99.90
8269;DHT22;4174;48.304;16.364;2023-11-21T08:58:35;12.60;99.90
8269;DHT22;4174;48.304;16.364;2023-11-21T09:04:39;12.80;99.90
8269;DHT22;4174;48.304;16.364;2023-11-21T09:10:42;13.00;99.90
8269;DHT22;4174;48.304;16.364;2023-11-21T09:16:46;13.20;99.90
8269;DHT22;4174;48.304;16.364;2023-11-21T09:22:49;13.60;99.90
8269;DHT22;4174;48.304;16.364;2023-11-21T09:28:53;13.90;99.90
8269;DHT22;4174;48.304;16.364;2023-11-21T09:34:57;13.90;99.90
8269;DHT22;4174;48.304;16.364;2023-11-21T09:41:01;14.50;99.90
8269;DHT22;4174;48.304;16.364;2023-11-21T09:47:04;14.70;99.90
8269;DHT22;4174;48.304;16.364;2023-11-21T09:53:19;14.30;99.90
8269;DHT22;4174;48.304;16.364;2023-11-21T09:59:21;14.30;99.90
8269;DHT22;4174;48.304;16.364;2023-11-21T10:05:23;13.50;99.90
8269;DHT22;4174;48.304;16.364;2023-11-21T10:11:26;13.10;99.90
8269;DHT22;4174;48.304;16.364;2023-11-21T10:17:29;13.10;99.90
8269;DHT22;4174;48.304;16.364;2023-11-21T10:23:33;13.70;99.90
8269;DHT22;4174;48.304;16.364;2023-11-21T10:29:38;13.70;99.90
8269;DHT22;4174;48.304;16.364;2023-11-21T10:35:45;14.30;99.90
8269;DHT22;4174;48.304;16.364;2023-11-21T10:41:48;14.80;99.90
8269;DHT22;4174;48.304;16.364;2023-11-21T10:47:51;15.40;99.90
8269;DHT22;4174;48.304;16.364;2023-11-21T10:53:54;15.30;99.90
8269;DHT22;4174;48.304;16.364;2023-11-21T10:59:58;15.70;99.90
8269;DHT22;4174;48.304;16.364;2023-11-21T11:06:02;15.00;99.90
8269;DHT22;4174;48.304;16.364;2023-11-21T11:12:04;15.00;99.90
8269;DHT22;4174;48.304;16.364;2023-11-21T11:18:08;14.70;99.90
8269;DHT22;4174;48.304;16.364;2023-11-21T11:31:05;14.40;99.90
8269;DHT22;4174;48.304;16.364;2023-11-21T11:37:07;14.50;99.90
8269;DHT22;4174;48.304;16.364;2023-11-21T11:43:11;14.70;99.90
8269;DHT22;4174;48.304;16.364;2023-11-21T11:49:24;15.10;99.90
8269;DHT22;4174;48.304;16.364;2023-11-21T11:55:26;15.30;99.90
8269;DHT22;4174;48.304;16.364;2023-11-21T12:01:31;15.10;99.90
8269;DHT22;4174;48.304;16.364;2023-11-21T12:07:42;14.00;99.90
8269;DHT22;4174;48.304;16.364;2023-11-21T12:13:46;14.00;99.90
8269;DHT22;4174;48.304;16.364;2023-11-21T12:19:49;13.80;99.90
8269;DHT22;4174;48.304;16.364;2023-11-21T12:25:53;13.90;99.90
8269;DHT22;4174;48.304;16.364;2023-11-21T12:31:57;13.90;99.90
8269;DHT22;4174;48.304;16.364;2023-11-21T18:24:52;10.10;99.90
8269;DHT22;4174;48.304;16.364;2023-11-21T18:30:55;10.10;99.90
8269;DHT22;4174;48.304;16.364;2023-11-21T18:37:00;10.30;99.90
8269;DHT22;4174;48.304;16.364;2023-11-21T18:43:03;10.30;99.90
8269;DHT22;4174;48.304;16.364;2023-11-21T18:49:07;10.30;99.90
8269;DHT22;4174;48.304;16.364;2023-11-21T18:55:10;10.50;99.90
8269;DHT22;4174;48.304;16.364;2023-11-21T19:01:23;10.50;99.90
8269;DHT22;4174;48.304;16.364;2023-11-21T19:07:16;10.50;99.90
8269;DHT22;4174;48.304;16.364;2023-11-21T19:13:20;10.50;99.90
8269;DHT22;4174;48.304;16.364;2023-11-21T19:19:23;10.50;99.90
8269;DHT22;4174;48.304;16.364;2023-11-21T19:25:26;10.30;99.90
8269;DHT22;4174;48.304;16.364;2023-11-21T19:31:30;10.20;99.90
8269;DHT22;4174;48.304;16.364;2023-11-21T19:37:33;10.10;99.90
8269;DHT22;4174;48.304;16.364;2023-11-21T19:43:36;9.80;99.90
8269;DHT22;4174;48.304;16.364;2023-11-21T19:49:40;9.60;99.90
8269;DHT22;4174;48.304;16.364;2023-11-21T19:55:44;9.30;99.90
8269;DHT22;4174;48.304;16.364;2023-11-21T20:01:47;9.20;99.90
8269;DHT22;4174;48.304;16.364;2023-11-21T20:07:51;9.20;99.90
8269;DHT22;4174;48.304;16.364;2023-11-21T20:13:55;9.20;99.90
8269;DHT22;4174;48.304;16.364;2023-11-21T20:19:58;9.00;99.90
8269;DHT22;4174;48.304;16.364;2023-11-21T20:26:02;8.90;99.90
8269;DHT22;4174;48.304;16.364;2023-11-21T20:32:05;8.80;99.90
8269;DHT22;4174;48.304;16.364;2023-11-21T20:38:09;8.70;99.90
8269;DHT22;4174;48.304;16.364;2023-11-21T20:44:13;8.60;99.90
8269;DHT22;4174;48.304;16.364;2023-11-21T20:50:16;8.60;99.90
8269;DHT22;4174;48.304;16.364;2023-11-21T20:56:19;8.50;99.90
8269;DHT22;4174;48.304;16.364;2023-11-21T21:02:23;8.40;99.90
8269;DHT22;4174;48.304;16.364;2023-11-21T21:08:27;8.40;99.90
8269;DHT22;4174;48.304;16.364;2023-11-21T21:14:31;8.40;99.90
8269;DHT22;4174;48.304;16.364;2023-11-21T21:20:35;8.40;99.90
8269;DHT22;4174;48.304;16.364;2023-11-21T21:26:39;8.30;99.90
8269;DHT22;4174;48.304;16.364;2023-11-21T21:32:42;8.30;99.90
8269;DHT22;4174;48.304;16.364;2023-11-21T21:38:46;8.30;99.90
8269;DHT22;4174;48.304;16.364;2023-11-21T21:44:49;8.40;99.90
8269;DHT22;4174;48.304;16.364;2023-11-21T21:50:53;8.50;99.90
8269;DHT22;4174;48.304;16.364;2023-11-21T21:56:56;8.60;99.90
8269;DHT22;4174;48.304;16.364;2023-11-21T22:03:00;8.70;99.90
8269;DHT22;4174;48.304;16.364;2023-11-21T22:09:04;8.90;99.90
8269;DHT22;4174;48.304;16.364;2023-11-21T22:15:09;9.00;99.90
8269;DHT22;4174;48.304;16.364;2023-11-21T22:21:13;9.10;99.90
8269;DHT22;4174;48.304;16.364;2023-11-21T22:27:16;9.20;99.90
8269;DHT22;4174;48.304;16.364;2023-11-21T22:33:19;9.20;99.90
8269;DHT22;4174;48.304;16.364;2023-11-21T22:39:22;9.30;99.90
8269;DHT22;4174;48.304;16.364;2023-11-21T22:45:26;9.40;99.90
8269;DHT22;4174;48.304;16.364;2023-11-21T22:51:32;9.50;99.90
8269;DHT22;4174;48.304;16.364;2023-11-21T22:57:36;9.60;99.90
8269;DHT22;4174;48.304;16.364;2023-11-21T23:03:39;9.70;99.90
8269;DHT22;4174;48.304;16.364;2023-11-21T23:09:44;9.80;99.90
8269;DHT22;4174;48.304;16.364;2023-11-21T23:15:48;9.70;99.90
8269;DHT22;4174;48.304;16.364;2023-11-21T23:21:51;9.50;99.90
8269;DHT22;4174;48.304;16.364;2023-11-21T23:27:55;9.30;99.90
8269;DHT22;4174;48.304;16.364;2023-11-21T23:33:58;9.20;99.90
8269;DHT22;4174;48.304;16.364;2023-11-21T23:40:02;9.10;99.90
8269;DHT22;4174;48.304;16.364;2023-11-21T23:46:06;9.20;99.90
8269;DHT22;4174;48.304;16.364;2023-11-21T23:52:10;9.10;99.90
8269;DHT22;4174;48.304;16.364;2023-11-21T23:58:13;9.20;99.90
